Time;durP1;ratioP1;P1;durP2;ratioP2;P2;SDS_P1;SDS_P2;PMS_P1;PMS_P2;Temp;Humidity;BMP_temperature;BMP_pressure;BME280_temperature;BME280_humidity;BME280_pressure;Samples;Min_cycle;Max_cycle;Signal;HPM_P1;HPM_P2
2023/09/27 00:04:51;;;;;;;41.20;27.10;;;;;;;12.56;100.00;101899.63;10462513;28;20075;-78
2023/09/27 00:09:52;;;;;;;38.10;25.58;;;;;;;12.52;100.00;101893.75;10477501;28;20040;-78
2023/09/27 00:14:53;;;;;;;38.97;26.90;;;;;;;12.47;100.00;101906.63;10467225;28;20037;-77
2023/09/27 00:19:54;;;;;;;39.78;26.75;;;;;;;12.42;100.00;101898.22;10470061;28;20547;-80
2023/09/27 00:24:54;;;;;;;70.90;29.92;;;;;;;12.39;100.00;101884.91;10479810;28;20041;-77
2023/09/27 00:29:55;;;;;;;44.17;28.58;;;;;;;12.43;100.00;101897.97;10476132;28;20045;-79
2023/09/27 00:34:55;;;;;;;44.47;29.58;;;;;;;12.42;100.00;101903.72;10482689;28;20052;-68
2023/09/27 00:39:56;;;;;;;44.72;29.30;;;;;;;12.37;100.00;101925.72;10457176;28;20053;-78
2023/09/27 00:44:57;;;;;;;49.30;30.73;;;;;;;12.30;100.00;101926.69;10476453;28;20059;-78
2023/09/27 00:49:57;;;;;;;52.63;32.40;;;;;;;12.27;100.00;101929.91;10479055;28;20163;-78
2023/09/27 00:54:58;;;;;;;43.72;28.77;;;;;;;12.26;100.00;101924.66;10478890;28;20407;-78
2023/09/27 00:59:58;;;;;;;46.58;30.02;;;;;;;12.23;100.00;101923.19;10474583;28;20062;-78
2023/09/27 01:04:59;;;;;;;48.15;30.20;;;;;;;12.16;100.00;101907.84;10479051;28;20037;-78
2023/09/27 01:09:59;;;;;;;49.90;31.80;;;;;;;12.19;100.00;101913.69;10474925;28;20045;-77
2023/09/27 01:15:00;;;;;;;51.80;32.05;;;;;;;12.18;100.00;101906.53;10476671;28;20036;-78
2023/09/27 01:20:01;;;;;;;52.17;31.38;;;;;;;12.19;100.00;101915.63;10468152;28;20036;-77
2023/09/27 01:25:01;;;;;;;57.58;34.40;;;;;;;12.17;100.00;101918.63;10474128;28;20029;-77
2023/09/27 01:30:05;;;;;;;49.20;31.77;;;;;;;12.15;100.00;101909.75;10457691;28;20052;-77
2023/09/27 01:35:06;;;;;;;53.65;33.72;;;;;;;12.15;100.00;101904.22;10475482;28;20052;-77
2023/09/27 01:40:16;;;;;;;59.70;35.60;;;;;;;12.15;100.00;101908.91;10479936;28;20037;-78
2023/09/27 01:45:16;;;;;;;52.38;35.67;;;;;;;12.13;100.00;101917.41;10471520;28;20409;-77
2023/09/27 01:50:21;;;;;;;51.63;33.22;;;;;;;11.98;100.00;101911.53;10477641;28;20460;-78
2023/09/27 01:55:22;;;;;;;50.75;33.40;;;;;;;12.00;100.00;101928.72;10472893;28;20072;-78
2023/09/27 02:00:22;;;;;;;55.83;34.00;;;;;;;11.94;100.00;101910.34;10478600;28;20037;-75
2023/09/27 02:05:23;;;;;;;58.03;35.38;;;;;;;11.90;100.00;101910.81;10471040;28;20040;-78
2023/09/27 02:10:24;;;;;;;62.13;36.15;;;;;;;11.86;100.00;101912.31;10480011;28;20064;-78
2023/09/27 02:15:24;;;;;;;59.13;35.30;;;;;;;11.85;100.00;101924.44;10436600;28;20048;-77
2023/09/27 02:20:25;;;;;;;61.53;37.58;;;;;;;11.88;100.00;101936.94;10471987;28;20037;-79
2023/09/27 02:25:26;;;;;;;58.60;36.67;;;;;;;11.76;100.00;101906.56;10486122;28;20360;-77
2023/09/27 02:30:26;;;;;;;66.00;38.35;;;;;;;11.82;100.00;101918.56;10480565;28;20057;-78
2023/09/27 02:35:27;;;;;;;59.92;37.88;;;;;;;11.76;100.00;101923.13;10449438;28;20047;-78
2023/09/27 02:40:27;;;;;;;61.33;36.70;;;;;;;11.62;100.00;101894.06;10478714;28;20051;-68
2023/09/27 02:45:28;;;;;;;65.03;39.42;;;;;;;11.64;100.00;101902.94;10481390;28;20049;-78
2023/09/27 02:50:28;;;;;;;59.22;36.20;;;;;;;11.62;100.00;101921.66;10482179;28;20036;-78
2023/09/27 02:55:28;;;;;;;58.65;36.70;;;;;;;11.59;100.00;101916.59;10462958;28;20056;-77
2023/09/27 03:00:29;;;;;;;62.60;37.92;;;;;;;11.59;100.00;101905.56;10483373;28;20047;-77
2023/09/27 03:05:35;;;;;;;58.15;35.05;;;;;;;11.52;100.00;101912.00;10480273;28;20037;-78
2023/09/27 03:10:42;;;;;;;64.77;37.90;;;;;;;11.50;100.00;101903.13;10460487;28;20533;-79
2023/09/27 03:15:44;;;;;;;63.60;37.67;;;;;;;11.44;100.00;101917.88;10478142;28;20041;-78
2023/09/27 03:20:44;;;;;;;63.78;38.20;;;;;;;11.31;100.00;101896.00;10484451;28;20037;-78
2023/09/27 03:25:46;;;;;;;64.03;39.00;;;;;;;11.44;100.00;101909.59;10478848;28;20029;-78
2023/09/27 03:30:47;;;;;;;70.53;41.08;;;;;;;11.49;100.00;101909.75;10484998;28;20453;-78
2023/09/27 03:35:47;;;;;;;70.22;40.65;;;;;;;11.46;100.00;101918.47;10477299;28;20057;-78
2023/09/27 03:40:48;;;;;;;65.20;40.80;;;;;;;11.40;100.00;101913.91;10484134;28;20048;-77
2023/09/27 03:45:51;;;;;;;68.95;40.25;;;;;;;11.40;100.00;101919.41;10459103;28;20038;-78
2023/09/27 03:50:52;;;;;;;73.90;41.50;;;;;;;11.34;100.00;101914.00;10481278;28;20033;-78
2023/09/27 03:55:52;;;;;;;70.82;41.47;;;;;;;11.34;100.00;101920.34;10459991;28;20481;-79
2023/09/27 04:00:52;;;;;;;75.05;43.80;;;;;;;11.31;100.00;101896.00;10479706;28;20037;-78
2023/09/27 04:05:53;;;;;;;81.75;46.25;;;;;;;11.39;100.00;101903.97;10461639;28;20037;-78
2023/09/27 04:10:53;;;;;;;81.75;48.03;;;;;;;11.45;100.00;101892.00;10481003;28;20134;-77
2023/09/27 04:15:54;;;;;;;81.47;47.38;;;;;;;11.48;100.00;101913.56;10460648;28;20041;-78
2023/09/27 04:20:54;;;;;;;76.88;43.63;;;;;;;11.41;100.00;101900.94;10473077;28;20477;-75
2023/09/27 04:25:55;;;;;;;77.80;44.15;;;;;;;11.36;100.00;101904.41;10476418;28;20135;-78
2023/09/27 04:30:55;;;;;;;77.90;44.13;;;;;;;11.30;100.00;101908.94;10463134;28;20043;-79
2023/09/27 04:35:56;;;;;;;75.65;42.40;;;;;;;11.29;100.00;101914.72;10476792;28;20040;-77
2023/09/27 04:40:56;;;;;;;75.93;44.83;;;;;;;11.26;100.00;101912.41;10481952;28;20040;-77
2023/09/27 04:45:57;;;;;;;85.20;46.42;;;;;;;11.24;100.00;101920.06;10458303;28;20028;-78
2023/09/27 04:50:59;;;;;;;79.18;46.53;;;;;;;11.26;100.00;101923.44;10472803;28;20040;-78
2023/09/27 04:55:59;;;;;;;74.50;45.30;;;;;;;11.27;100.00;101919.63;10481076;28;20032;-78
2023/09/27 05:01:00;;;;;;;79.10;45.53;;;;;;;11.18;100.00;101915.47;10468056;28;20041;-79
2023/09/27 05:06:01;;;;;;;77.35;45.00;;;;;;;11.13;100.00;101937.41;10478115;28;20037;-79
2023/09/27 05:11:02;;;;;;;77.28;47.42;;;;;;;11.04;100.00;101934.97;10476583;28;20059;-78
2023/09/27 05:16:03;;;;;;;89.30;46.00;;;;;;;11.05;100.00;101961.44;10440778;28;20063;-78
2023/09/27 05:21:05;;;;;;;82.53;47.35;;;;;;;11.05;100.00;101963.34;10477448;28;20057;-76
2023/09/27 05:26:06;;;;;;;81.93;48.67;;;;;;;10.98;100.00;101971.72;10477074;28;20037;-79
2023/09/27 05:31:06;;;;;;;88.72;48.33;;;;;;;11.08;100.00;101980.28;10439387;28;20114;-75
2023/09/27 05:36:07;;;;;;;89.82;50.17;;;;;;;11.15;100.00;101982.09;10478097;28;20045;-79
2023/09/27 05:41:07;;;;;;;80.78;46.72;;;;;;;11.20;100.00;101985.00;10473131;28;20041;-78
2023/09/27 05:46:07;;;;;;;86.95;48.80;;;;;;;11.28;100.00;101992.94;10476316;28;20049;-79
2023/09/27 05:51:08;;;;;;;84.82;49.60;;;;;;;11.41;100.00;101995.56;10478176;28;20322;-79
2023/09/27 05:56:08;;;;;;;87.95;50.38;;;;;;;11.62;100.00;101991.44;10473039;28;20048;-80
2023/09/27 06:01:10;;;;;;;88.68;51.33;;;;;;;11.73;100.00;101953.94;10486186;28;20037;-75
2023/09/27 06:06:12;;;;;;;93.43;51.47;;;;;;;12.01;100.00;101969.00;10463697;28;20064;-79
2023/09/27 06:11:12;;;;;;;98.75;50.67;;;;;;;12.16;100.00;101961.13;10447725;28;20555;-79
2023/09/27 06:16:13;;;;;;;81.78;48.60;;;;;;;12.29;100.00;101943.50;10481491;28;20036;-80
2023/09/27 06:21:14;;;;;;;81.35;48.65;;;;;;;12.39;100.00;101949.25;10479469;28;20041;-79
2023/09/27 06:26:14;;;;;;;80.18;45.90;;;;;;;12.47;100.00;101945.28;10484542;28;20072;-80
2023/09/27 06:31:15;;;;;;;80.85;46.08;;;;;;;12.55;100.00;101958.75;10480076;28;20041;-77
2023/09/27 06:36:16;;;;;;;76.13;47.30;;;;;;;12.59;100.00;101957.19;10482145;28;20048;-71
2023/09/27 06:41:16;;;;;;;66.30;42.38;;;;;;;12.75;100.00;101957.50;10482292;28;20044;-79
2023/09/27 06:46:18;;;;;;;71.65;44.65;;;;;;;12.79;100.00;101958.72;10480375;28;20102;-79
2023/09/27 06:51:19;;;;;;;89.18;56.00;;;;;;;12.77;100.00;101955.34;10470058;28;20034;-79
2023/09/27 06:56:20;;;;;;;68.55;44.22;;;;;;;12.75;100.00;101963.03;10482217;28;20033;-79
2023/09/27 07:01:21;;;;;;;70.97;43.72;;;;;;;12.85;100.00;101968.78;10460006;28;20071;-78
2023/09/27 07:06:22;;;;;;;69.10;42.60;;;;;;;12.96;100.00;101961.56;10486472;28;20427;-79
2023/09/27 07:11:23;;;;;;;71.63;43.35;;;;;;;13.10;100.00;101972.13;10468199;28;20056;-78
2023/09/27 07:16:26;;;;;;;71.07;44.38;;;;;;;13.36;100.00;101964.34;10477849;28;20045;-78
2023/09/27 07:21:27;;;;;;;64.82;41.72;;;;;;;13.70;100.00;101969.97;10483994;28;20036;-78
2023/09/27 07:26:32;;;;;;;59.55;39.33;;;;;;;13.78;100.00;101988.94;10478502;28;20505;-78
2023/09/27 07:31:33;;;;;;;55.63;36.83;;;;;;;13.91;100.00;101987.78;10484001;28;20040;-79
2023/09/27 07:36:33;;;;;;;55.92;36.42;;;;;;;14.06;100.00;101995.53;10477734;28;20064;-78
2023/09/27 07:41:35;;;;;;;52.67;34.63;;;;;;;14.25;100.00;101999.72;10466530;28;20554;-78
2023/09/27 07:46:36;;;;;;;53.40;34.45;;;;;;;14.48;100.00;102004.25;10476435;28;20127;-78
2023/09/27 07:51:36;;;;;;;47.88;33.60;;;;;;;14.65;100.00;101995.13;10480246;28;20508;-78
2023/09/27 07:56:39;;;;;;;48.17;33.22;;;;;;;14.79;100.00;101998.38;10479778;28;20033;-77
2023/09/27 08:01:41;;;;;;;43.78;31.67;;;;;;;14.85;100.00;102012.06;10477598;28;20033;-77
2023/09/27 08:06:42;;;;;;;45.42;31.73;;;;;;;14.85;100.00;102019.53;10476319;28;20087;-78
2023/09/27 08:11:43;;;;;;;43.22;30.67;;;;;;;14.97;100.00;102028.59;10462314;28;20056;-78
2023/09/27 08:16:43;;;;;;;41.75;30.90;;;;;;;14.99;100.00;102020.84;10467357;28;20029;-77
2023/09/27 08:21:44;;;;;;;41.15;30.13;;;;;;;15.13;100.00;102022.16;10453750;28;20321;-78
2023/09/27 08:26:44;;;;;;;44.15;31.98;;;;;;;15.16;100.00;102025.50;10447280;28;20132;-77
2023/09/27 08:31:45;;;;;;;41.00;30.60;;;;;;;15.19;100.00;102019.44;10450089;28;20044;-77
2023/09/27 08:36:45;;;;;;;43.72;31.73;;;;;;;15.32;100.00;102007.97;10449579;28;20037;-78
2023/09/27 08:41:47;;;;;;;40.30;30.00;;;;;;;15.56;100.00;102016.84;10454858;28;20817;-76
2023/09/27 08:46:47;;;;;;;39.72;28.75;;;;;;;15.87;100.00;101998.59;10452113;28;20068;-71
2023/09/27 08:51:47;;;;;;;41.38;28.98;;;;;;;16.23;100.00;102012.81;10460267;28;20053;-77
2023/09/27 08:56:50;;;;;;;39.53;26.92;;;;;;;16.54;100.00;102001.97;10444615;28;20036;-77
2023/09/27 09:01:52;;;;;;;34.53;25.05;;;;;;;16.87;100.00;102011.09;10476338;28;20037;-76
2023/09/27 09:06:52;;;;;;;40.58;25.20;;;;;;;17.20;100.00;102015.44;10460497;28;20045;-76
2023/09/27 09:11:57;;;;;;;31.02;24.50;;;;;;;17.39;100.00;102012.19;10476611;28;20029;-79
2023/09/27 09:16:58;;;;;;;33.17;24.55;;;;;;;17.60;100.00;102027.84;10476857;28;20493;-77
2023/09/27 09:22:05;;;;;;;31.98;23.83;;;;;;;17.69;100.00;102029.00;10481396;28;20059;-78
2023/09/27 09:27:12;;;;;;;34.63;24.08;;;;;;;17.74;100.00;102029.00;10455052;28;20121;-77
2023/09/27 09:32:15;;;;;;;30.67;24.33;;;;;;;18.01;100.00;102060.56;10458134;28;20102;-77
2023/09/27 09:37:19;;;;;;;39.70;24.17;;;;;;;18.41;100.00;102045.00;10455299;28;20040;-78
2023/09/27 09:42:30;;;;;;;29.05;21.33;;;;;;;18.70;100.00;102051.66;10449806;28;20049;-78
2023/09/27 09:47:30;;;;;;;29.55;22.35;;;;;;;18.80;100.00;102052.81;10475282;28;20111;-78
2023/09/27 09:52:31;;;;;;;29.42;20.08;;;;;;;18.83;100.00;102043.84;10474725;28;20036;-79
2023/09/27 09:57:35;;;;;;;30.52;22.50;;;;;;;18.87;100.00;102050.56;10476529;28;20049;-75
2023/09/27 10:02:36;;;;;;;34.58;23.00;;;;;;;18.92;100.00;102048.59;10474409;28;20029;-77
2023/09/27 10:07:36;;;;;;;27.77;21.98;;;;;;;19.00;100.00;102024.88;10460264;28;20046;-77
2023/09/27 10:12:36;;;;;;;25.23;20.20;;;;;;;19.26;100.00;102042.34;10461637;28;20037;-78
2023/09/27 10:17:37;;;;;;;25.75;20.45;;;;;;;19.42;100.00;102037.53;10457119;28;20041;-78
2023/09/27 10:22:39;;;;;;;25.75;19.33;;;;;;;19.61;100.00;102022.94;10435538;28;20049;-77
2023/09/27 10:28:15;;;;;;;27.50;18.90;;;;;;;19.92;100.00;101996.50;10457860;28;20405;-78
2023/09/27 10:33:15;;;;;;;30.45;18.60;;;;;;;20.79;100.00;101974.50;10443264;28;20068;-79
2023/09/27 10:38:16;;;;;;;20.85;15.07;;;;;;;20.99;100.00;101974.25;10458481;28;20037;-77
2023/09/27 10:43:34;;;;;;;21.13;15.98;;;;;;;21.14;100.00;101965.66;10476992;28;20037;-78
2023/09/27 10:48:37;;;;;;;20.83;15.93;;;;;;;21.47;100.00;101940.59;10483730;28;20036;-76
2023/09/27 10:53:37;;;;;;;22.17;14.32;;;;;;;21.65;100.00;101938.13;10462322;28;20039;-76
2023/09/27 10:58:44;;;;;;;18.42;14.20;;;;;;;21.56;100.00;101918.34;10481349;28;20047;-77
2023/09/27 11:03:46;;;;;;;20.83;13.20;;;;;;;21.49;100.00;101915.09;10482819;28;20120;-76
2023/09/27 11:08:47;;;;;;;21.42;15.30;;;;;;;21.45;100.00;101892.44;10480004;28;20036;-74
2023/09/27 11:13:47;;;;;;;21.52;14.88;;;;;;;21.78;100.00;101898.09;10464816;28;20052;-76
2023/09/27 11:18:57;;;;;;;20.63;15.23;;;;;;;21.89;100.00;101891.19;10469578;28;20033;-76
2023/09/27 11:24:03;;;;;;;17.75;14.10;;;;;;;22.25;100.00;101887.78;10477729;28;20045;-77
2023/09/27 11:29:07;;;;;;;22.45;14.98;;;;;;;22.97;100.00;101875.09;10482799;28;20052;-77
2023/09/27 11:34:17;;;;;;;18.35;13.13;;;;;;;22.98;100.00;101845.84;10461836;28;20153;-79
2023/09/27 11:39:46;;;;;;;15.45;11.50;;;;;;;22.98;100.00;101887.97;10463236;28;20045;-78
2023/09/27 11:45:05;;;;;;;18.33;11.70;;;;;;;23.12;100.00;101877.59;10469121;28;20071;-77
2023/09/27 11:50:06;;;;;;;15.18;11.55;;;;;;;23.40;100.00;101877.53;10467000;28;20041;-76
2023/09/27 11:55:07;;;;;;;16.67;12.52;;;;;;;23.21;100.00;101863.63;10482310;28;20039;-79
2023/09/27 12:00:16;;;;;;;14.07;10.63;;;;;;;23.21;100.00;101851.56;10476332;28;20044;-76
2023/09/27 12:05:17;;;;;;;14.48;9.35;;;;;;;23.22;100.00;101842.00;10467283;28;20032;-77
2023/09/27 12:10:17;;;;;;;12.00;8.88;;;;;;;23.02;100.00;101838.50;10482899;28;20044;-76
2023/09/27 12:15:18;;;;;;;14.85;9.60;;;;;;;22.65;100.00;101828.34;10470314;28;20032;-76
2023/09/27 12:20:20;;;;;;;19.90;12.07;;;;;;;22.08;100.00;101826.63;10475290;28;20567;-75
2023/09/27 12:25:20;;;;;;;16.88;10.25;;;;;;;21.49;100.00;101786.22;10480193;28;20036;-75
2023/09/27 12:30:21;;;;;;;15.27;10.93;;;;;;;21.46;100.00;101818.47;10477571;28;20136;-77
2023/09/27 12:35:21;;;;;;;13.48;9.32;;;;;;;22.05;100.00;101803.97;10478679;28;20043;-76
2023/09/27 12:40:24;;;;;;;14.00;10.98;;;;;;;22.21;100.00;101737.22;10444237;28;20044;-74
2023/09/27 12:45:24;;;;;;;11.40;8.95;;;;;;;22.64;100.00;101793.84;10470301;28;20461;-74
2023/09/27 12:50:27;;;;;;;13.07;8.75;;;;;;;22.60;100.00;101792.78;10472360;28;20062;-76
2023/09/27 12:55:28;;;;;;;13.05;8.77;;;;;;;22.73;100.00;101803.16;10479382;28;20041;-76
2023/09/27 13:00:29;;;;;;;10.80;8.30;;;;;;;22.62;100.00;101798.94;10475472;28;20052;-75
2023/09/27 13:05:30;;;;;;;15.85;8.80;;;;;;;22.87;100.00;101791.91;10479300;28;20032;-76
2023/09/27 13:10:34;;;;;;;11.10;8.40;;;;;;;22.84;100.00;101774.84;10463693;28;20052;-76
2023/09/27 13:15:35;;;;;;;10.00;8.52;;;;;;;22.81;100.00;101786.72;10460846;28;20068;-76
2023/09/27 13:20:36;;;;;;;10.05;7.43;;;;;;;22.72;100.00;101779.06;10471135;28;20438;-78
2023/09/27 13:25:36;;;;;;;9.20;7.43;;;;;;;22.66;100.00;101771.91;10480600;28;20032;-77
2023/09/27 13:30:37;;;;;;;9.10;7.28;;;;;;;22.65;100.00;101778.63;10471683;28;20041;-76
2023/09/27 13:35:37;;;;;;;8.57;6.82;;;;;;;22.89;100.00;101775.56;10478060;28;20040;-76
2023/09/27 13:40:37;;;;;;;11.10;7.93;;;;;;;23.10;100.00;101764.72;10458096;28;20390;-75
2023/09/27 13:45:38;;;;;;;10.32;7.15;;;;;;;23.33;100.00;101771.16;10474280;28;20041;-67
2023/09/27 13:50:38;;;;;;;7.65;5.45;;;;;;;23.65;100.00;101765.59;10476358;28;20036;-77
2023/09/27 13:55:39;;;;;;;8.52;5.72;;;;;;;23.86;100.00;101749.03;10476201;28;20052;-77
2023/09/27 14:00:40;;;;;;;8.38;5.75;;;;;;;24.05;100.00;101745.97;10474411;28;20048;-76
2023/09/27 14:05:41;;;;;;;8.73;5.43;;;;;;;24.08;100.00;101740.53;10476887;28;20052;-76
2023/09/27 14:10:41;;;;;;;8.85;5.22;;;;;;;23.97;100.00;101731.53;10474796;28;20037;-77
2023/09/27 14:15:42;;;;;;;7.03;4.68;;;;;;;23.73;100.00;101729.09;10478616;28;20036;-77
2023/09/27 14:20:42;;;;;;;7.22;5.00;;;;;;;23.33;100.00;101729.03;10468725;28;20098;-75
2023/09/27 14:25:43;;;;;;;6.68;3.95;;;;;;;22.97;100.00;101729.06;10479994;28;20123;-77
2023/09/27 14:30:44;;;;;;;6.18;4.25;;;;;;;22.82;100.00;101726.63;10479173;28;20041;-76
2023/09/27 14:35:45;;;;;;;7.43;3.40;;;;;;;22.68;100.00;101721.88;10471166;28;20037;-76
2023/09/27 14:40:46;;;;;;;4.60;3.40;;;;;;;22.61;100.00;101718.66;10486750;28;20419;-76
2023/09/27 14:45:46;;;;;;;5.70;3.97;;;;;;;22.67;100.00;101720.22;10480089;28;20100;-77
2023/09/27 14:50:47;;;;;;;6.72;3.50;;;;;;;22.66;100.00;101698.91;10483357;28;20049;-75
2023/09/27 14:55:47;;;;;;;7.50;3.85;;;;;;;22.67;100.00;101686.53;10479087;28;20052;-76
2023/09/27 15:00:48;;;;;;;4.22;3.03;;;;;;;22.76;100.00;101695.06;10483340;28;20036;-77
2023/09/27 15:05:48;;;;;;;6.00;2.90;;;;;;;22.97;100.00;101692.56;10464152;28;20048;-77
2023/09/27 15:10:49;;;;;;;6.53;3.67;;;;;;;23.10;100.00;101682.44;10480116;28;20036;-76
2023/09/27 15:15:49;;;;;;;4.22;3.17;;;;;;;22.76;100.00;101666.97;10472750;28;20100;-77
2023/09/27 15:20:50;;;;;;;6.10;3.22;;;;;;;22.41;100.00;101663.88;10480500;28;20058;-78
2023/09/27 15:25:50;;;;;;;4.43;3.15;;;;;;;22.02;100.00;101661.63;10460272;28;20526;-76
2023/09/27 15:30:51;;;;;;;8.73;3.25;;;;;;;21.71;100.00;101662.25;10486160;28;20055;-75
2023/09/27 15:35:52;;;;;;;4.88;3.13;;;;;;;21.39;100.00;101651.91;10463877;28;20041;-76
2023/09/27 15:40:53;;;;;;;5.55;3.15;;;;;;;21.21;100.00;101640.47;10441488;28;20429;-76
2023/09/27 15:46:04;;;;;;;6.60;3.90;;;;;;;21.16;100.00;101618.97;10441908;28;20075;-77
2023/09/27 15:51:06;;;;;;;8.52;4.55;;;;;;;21.19;100.00;101614.75;10444708;28;20052;-76
2023/09/27 15:56:07;;;;;;;8.45;4.20;;;;;;;21.10;100.00;101611.81;10476224;28;20037;-74
2023/09/27 16:01:08;;;;;;;8.52;4.85;;;;;;;20.92;100.00;101596.75;10482205;28;20064;-76
2023/09/27 16:06:09;;;;;;;8.40;4.75;;;;;;;20.73;100.00;101605.19;10475581;28;20041;-76
2023/09/27 16:11:09;;;;;;;6.80;4.85;;;;;;;20.41;100.00;101605.13;10455454;28;20103;-75
2023/09/27 16:16:10;;;;;;;11.23;5.97;;;;;;;20.19;100.00;101597.34;10452914;28;20033;-75
2023/09/27 16:21:10;;;;;;;8.13;5.05;;;;;;;19.82;100.00;101594.19;10446707;28;20049;-75
2023/09/27 16:26:11;;;;;;;5.70;4.47;;;;;;;19.56;100.00;101600.06;10441872;28;20132;-77
2023/09/27 16:31:11;;;;;;;7.78;4.65;;;;;;;19.39;100.00;101596.09;10457706;28;20044;-75
2023/09/27 16:36:16;;;;;;;7.28;4.68;;;;;;;19.23;100.00;101599.06;10450632;28;20037;-76
2023/09/27 16:41:20;;;;;;;8.82;4.60;;;;;;;18.99;100.00;101571.09;10470180;28;20029;-76
2023/09/27 16:46:20;;;;;;;7.28;5.35;;;;;;;19.03;100.00;101588.09;10448499;28;20439;-77
2023/09/27 16:51:21;;;;;;;8.88;5.70;;;;;;;18.77;100.00;101585.53;10467631;28;20037;-76
2023/09/27 16:56:21;;;;;;;7.60;5.90;;;;;;;18.60;100.00;101585.91;10447213;28;20029;-77
2023/09/27 17:01:22;;;;;;;7.72;5.88;;;;;;;18.42;100.00;101583.84;10472649;28;20096;-76
2023/09/27 17:06:23;;;;;;;7.43;6.65;;;;;;;18.25;100.00;101576.72;10480978;28;20101;-76
2023/09/27 17:11:24;;;;;;;8.73;5.95;;;;;;;18.05;100.00;101586.03;10477946;28;20056;-76
2023/09/27 17:16:28;;;;;;;11.05;6.88;;;;;;;17.79;100.00;101563.03;10460763;28;20045;-77
2023/09/27 17:21:28;;;;;;;10.13;7.65;;;;;;;17.62;100.00;101565.34;10462573;28;20045;-76
2023/09/27 17:26:29;;;;;;;9.73;6.53;;;;;;;17.46;100.00;101579.31;10472553;28;20049;-76
2023/09/27 17:31:29;;;;;;;11.68;7.68;;;;;;;17.30;100.00;101574.91;10456380;28;20044;-75
2023/09/27 17:36:30;;;;;;;12.80;9.10;;;;;;;17.16;100.00;101569.13;10457330;28;20040;-76
2023/09/27 17:41:31;;;;;;;15.48;10.77;;;;;;;17.04;100.00;101554.66;10448471;28;20052;-77
2023/09/27 17:46:32;;;;;;;13.05;10.38;;;;;;;16.96;100.00;101550.50;10468987;28;20041;-77
2023/09/27 17:51:32;;;;;;;14.63;10.30;;;;;;;16.89;100.00;101559.16;10473523;28;20040;-76
2023/09/27 17:56:33;;;;;;;17.67;12.82;;;;;;;16.79;100.00;101542.44;10470031;28;20055;-77
2023/09/27 18:01:33;;;;;;;15.75;11.82;;;;;;;16.79;100.00;101547.19;10479889;28;20032;-77
2023/09/27 18:06:34;;;;;;;16.83;13.27;;;;;;;16.74;100.00;101546.06;10487092;28;20040;-77
2023/09/27 18:11:34;;;;;;;19.73;14.95;;;;;;;16.71;100.00;101517.97;10482307;28;20040;-77
2023/09/27 18:16:35;;;;;;;22.13;15.57;;;;;;;16.71;100.00;101507.69;10482128;28;20033;-78
2023/09/27 18:21:35;;;;;;;25.35;16.95;;;;;;;16.68;100.00;101508.25;10483350;28;20064;-77
2023/09/27 18:26:36;;;;;;;25.38;18.42;;;;;;;16.66;100.00;101507.72;10483262;28;20041;-78
2023/09/27 18:31:38;;;;;;;24.73;18.25;;;;;;;16.65;100.00;101497.69;10487362;28;20033;-77
2023/09/27 18:36:38;;;;;;;26.13;19.50;;;;;;;16.65;100.00;101503.25;10491416;28;20037;-77
2023/09/27 18:41:39;;;;;;;27.98;21.50;;;;;;;16.59;100.00;101496.03;10481372;28;20033;-78
2023/09/27 18:46:40;;;;;;;29.90;22.60;;;;;;;16.57;100.00;101492.69;10482943;28;20232;-77
2023/09/27 18:51:41;;;;;;;30.63;22.08;;;;;;;16.49;100.00;101494.06;10484269;28;20040;-76
2023/09/27 18:56:42;;;;;;;30.13;21.63;;;;;;;16.46;100.00;101505.75;10484823;28;20044;-68
2023/09/27 19:01:42;;;;;;;33.60;23.77;;;;;;;16.38;100.00;101511.06;10481815;28;20048;-77
2023/09/27 19:06:42;;;;;;;31.60;22.25;;;;;;;16.26;100.00;101523.25;10486764;28;20037;-78
2023/09/27 19:11:43;;;;;;;36.05;22.75;;;;;;;16.19;100.00;101516.34;10482305;28;20067;-77
2023/09/27 19:16:43;;;;;;;31.98;23.40;;;;;;;16.11;100.00;101520.47;10476311;28;20040;-77
2023/09/27 19:21:44;;;;;;;35.40;25.33;;;;;;;16.04;100.00;101506.00;10479753;28;20048;-77
2023/09/27 19:26:44;;;;;;;38.45;26.25;;;;;;;15.99;100.00;101508.81;10475778;28;20139;-77
2023/09/27 19:31:45;;;;;;;42.78;27.45;;;;;;;15.92;100.00;101493.25;10474984;28;20036;-77
2023/09/27 19:36:45;;;;;;;38.90;26.65;;;;;;;15.84;100.00;101481.84;10456508;28;20058;-78
2023/09/27 19:41:46;;;;;;;34.63;25.30;;;;;;;15.88;100.00;101477.41;10474680;28;20035;-78
2023/09/27 19:46:47;;;;;;;34.20;25.08;;;;;;;15.85;100.00;101448.22;10464795;28;20049;-67
2023/09/27 19:51:48;;;;;;;36.50;26.33;;;;;;;15.86;100.00;101432.44;10477671;28;20048;-75
2023/09/27 19:56:48;;;;;;;39.97;28.75;;;;;;;15.85;100.00;101412.13;10468930;28;20044;-77
2023/09/27 20:01:49;;;;;;;41.28;29.23;;;;;;;15.82;100.00;101401.59;10476893;28;20052;-77
2023/09/27 20:06:50;;;;;;;44.65;29.77;;;;;;;15.88;100.00;101396.88;10475865;28;20045;-77
2023/09/27 20:11:50;;;;;;;40.65;29.15;;;;;;;15.87;100.00;101409.91;10475289;28;20045;-78
2023/09/27 20:16:51;;;;;;;36.35;26.92;;;;;;;15.84;100.00;101424.38;10470776;28;20092;-77
2023/09/27 20:21:54;;;;;;;37.25;27.10;;;;;;;15.81;100.00;101399.09;10474664;28;20532;-77
2023/09/27 20:26:55;;;;;;;36.00;26.50;;;;;;;15.85;100.00;101411.31;10469537;28;20040;-78
2023/09/27 20:31:56;;;;;;;38.55;26.02;;;;;;;15.76;100.00;101405.47;10464998;28;20036;-79
2023/09/27 20:36:56;;;;;;;33.00;24.15;;;;;;;15.75;100.00;101392.72;10467908;28;20036;-78
2023/09/27 20:41:57;;;;;;;30.65;22.55;;;;;;;15.49;100.00;101356.56;10475056;28;20488;-77
2023/09/27 20:46:57;;;;;;;28.30;19.40;;;;;;;15.78;100.00;101377.44;10478497;28;20040;-78
2023/09/27 20:51:58;;;;;;;22.42;16.55;;;;;;;15.81;100.00;101374.94;10481225;28;20044;-79
2023/09/27 20:56:58;;;;;;;21.35;16.50;;;;;;;15.83;100.00;101391.31;10481725;28;20048;-77
2023/09/27 21:01:59;;;;;;;21.33;16.15;;;;;;;15.89;100.00;101382.69;10481728;28;20114;-78
2023/09/27 21:06:59;;;;;;;15.52;12.98;;;;;;;16.00;100.00;101369.66;10458472;28;20512;-79
2023/09/27 21:12:00;;;;;;;15.18;11.98;;;;;;;16.06;100.00;101370.47;10482820;28;20032;-78
2023/09/27 21:17:00;;;;;;;16.98;11.85;;;;;;;16.06;100.00;101381.59;10472602;28;20055;-79
2023/09/27 21:22:01;;;;;;;14.98;12.45;;;;;;;16.04;100.00;101379.13;10451763;28;20045;-79
2023/09/27 21:27:01;;;;;;;16.77;12.32;;;;;;;16.02;100.00;101372.16;10468352;28;20136;-78
2023/09/27 21:32:02;;;;;;;16.02;12.52;;;;;;;16.02;100.00;101361.03;10457221;28;20109;-77
2023/09/27 21:37:02;;;;;;;15.75;11.50;;;;;;;15.94;100.00;101338.28;10455419;28;20045;-78
2023/09/27 21:42:02;;;;;;;12.43;10.25;;;;;;;16.05;100.00;101327.16;10470374;28;20036;-77
2023/09/27 21:47:04;;;;;;;14.73;10.25;;;;;;;16.07;100.00;101330.50;10478079;28;20131;-79
2023/09/27 21:52:04;;;;;;;17.45;11.00;;;;;;;16.06;100.00;101321.34;10470611;28;20065;-79
2023/09/27 21:57:05;;;;;;;10.80;9.45;;;;;;;16.13;100.00;101319.09;10458307;28;20052;-76
2023/09/27 22:02:05;;;;;;;13.13;10.45;;;;;;;16.14;100.00;101309.66;10457921;28;20080;-78
2023/09/27 22:07:06;;;;;;;11.38;9.15;;;;;;;16.18;100.00;101298.78;10464337;28;20043;-78
2023/09/27 22:12:07;;;;;;;15.88;10.77;;;;;;;16.20;100.00;101284.63;10467972;28;20047;-78
2023/09/27 22:17:08;;;;;;;12.23;10.05;;;;;;;16.25;100.00;101276.28;10469942;28;20044;-78
2023/09/27 22:22:14;;;;;;;14.38;9.70;;;;;;;16.27;100.00;101263.78;10469958;28;20084;-77
2023/09/27 22:27:15;;;;;;;12.07;9.38;;;;;;;16.09;100.00;101217.19;10465317;28;20037;-78